Latest Coastal Weather Observations for Smithton

IDV60701

Issued at 10:52 am EST Sunday 23 July 2017 (issued every 10 minutes, with the page automatically refreshed every 10 minutes)

About coastal observations | Map of coastal stations | Coastal observations for VIC | Marine services | Other Formats
Station Details ID: 091292 Name: SMITHTON AERODROME Lat: -40.83 Lon: 145.08 Height: 7.5 m
Data from the previous 72 hours. | See also: Recent months at Smithton
Date/Time
EST
Temp
°C
Wind Pressure Rain since
9am
mm
Weather Cloud Vis
km
Sea
Height
m
Swell
Dir  Spd
kts
Gust
kts
hPa Trend Height
m
Period
s
Dir
23/10:38am 11.7 W 21 31 1004.4 - 0.6 - - - - - - -
23/10:30am 11.8 W 19 25 1004.0 - 0.4 - - - - - - -
23/10:04am 11.2 WNW 18 31 1004.1 - 0.2 - - - - - - -
23/10:00am 11.6 WNW 17 24 1004.2 - 0.0 - - - - - - -
23/09:30am 12.2 W 19 27 1004.1 - 0.0 - - - - - - -
23/09:03am 11.3 WNW 15 26 1004.1 - 0.0 - - - - - - -
23/09:00am 11.7 WNW 14 20 1004.2 - 4.2 - - - - - - -
23/08:30am 10.6 W 12 17 1004.1 - 4.2 - - - - - - -
23/08:00am 10.6 W 12 17 1004.0 - 4.2 - - - - - - -
23/07:30am 10.5 W 15 22 1004.0 - 4.2 - - - - - - -
23/07:00am 10.2 W 11 15 1003.8 - 4.2 - - - - - - -
23/06:30am 10.6 W 16 20 1003.5 - 4.2 - - - - - - -
23/06:00am 10.9 W 20 27 1003.4 - 4.2 - - - - - - -
23/05:30am 10.6 W 16 22 1003.2 - 4.2 - - - - - - -
23/05:02am 10.7 W 18 28 1003.4 - 4.2 - - - - - - -
23/05:00am 10.7 W 19 28 1003.5 - 4.2 - - - - - - -
23/04:50am 11.0 WSW 20 29 1003.2 - 3.8 - - - - - - -
23/04:30am 10.4 WNW 16 21 1003.2 - 3.8 - - - - - - -
23/04:00am 10.0 WNW 22 34 1003.4 - 3.8 - - - - - - -
23/03:58am 10.0 WNW 24 34 1003.6 - 3.6 - - - - - - -
23/03:51am 11.2 NW 27 34 1003.5 - 3.0 - - - - - - -
23/03:30am 11.4 NW 9 13 1003.3 - 2.4 - - - - - - -
23/03:00am 11.3 NW 13 17 1003.9 - 2.4 - - - - - - -
23/02:30am 11.4 NW 17 23 1004.3 - 2.4 - - - - - - -
23/02:00am 11.5 NW 20 26 1004.5 - 2.4 - - - - - - -
23/01:30am 11.5 NW 15 22 1004.7 - 2.4 - - - - - - -
23/01:00am 11.4 NW 16 21 1005.0 - 2.4 - - - - - - -
23/12:30am 11.3 NW 18 23 1005.7 - 2.2 - - - - - - -
23/12:00am 12.5 NW 17 22 1005.9 - 0.4 - - - - - - -
 
Date/Time
EST
Temp
°C
Wind Pressure Rain since
9am
mm
Weather Cloud Vis
km
Sea
Height
m
Swell
Dir  Spd
kts
Gust
kts
hPa Trend Height
m
Period
s
Dir
22/11:30pm 12.5 NNW 15 22 1005.7 - 0.4 - - - - - - -
22/11:00pm 12.5 NNW 16 22 1006.1 - 0.4 - - - - - - -
22/10:30pm 11.9 NNW 14 19 1006.4 - 0.4 - - - - - - -
22/10:00pm 11.9 NNW 13 19 1006.9 - 0.4 - - - - - - -
22/09:30pm 12.2 NNW 14 18 1007.3 - 0.4 - - - - - - -
22/09:00pm 12.4 NNW 13 18 1007.6 - 0.4 - - - - - - -
22/08:30pm 12.0 NNW 10 14 1007.9 - 0.4 - - - - - - -
22/08:00pm 11.5 NNW 8 11 1008.3 - 0.4 - - - - - - -
22/07:30pm 11.2 NNW 10 13 1008.4 - 0.4 - - - - - - -
22/07:00pm 11.2 NNW 8 10 1008.6 - 0.4 - - - - - - -
22/06:30pm 11.1 NNW 9 11 1008.7 - 0.4 - - - - - - -
22/06:00pm 10.6 NNW 9 12 1008.7 - 0.4 - - - - - - -
22/05:30pm 11.4 NNW 11 14 1008.6 - 0.4 - - - - - - -
22/05:00pm 12.3 NW 13 17 1008.6 - 0.4 - - - - - - -
22/04:30pm 12.8 NW 13 15 1008.8 - 0.4 - - - - - - -
22/04:00pm 12.6 NW 13 17 1009.1 - 0.4 - - - - - - -
22/03:30pm 12.7 NW 12 16 1009.3 - 0.4 - - - - - - -
22/03:00pm 12.6 NNW 13 16 1009.7 - 0.4 - - - - - - -
22/02:30pm 13.0 NNW 15 20 1010.0 - 0.4 - - - - - - -
22/02:00pm 13.4 NNW 14 17 1010.4 - 0.4 - - - - - - -
22/01:30pm 13.5 NNW 16 21 1010.8 - 0.4 - - - - - - -
22/01:00pm 12.8 NNW 14 19 1011.6 - 0.4 - - - - - - -
22/12:30pm 12.6 NNW 12 20 1012.2 - 0.4 - - - - - - -
22/12:00pm 12.0 NNW 12 16 1012.7 - 0.4 - - - - - - -
22/11:30am 11.8 N 9 13 1013.2 - 0.4 - - - - - - -
22/11:00am 11.3 N 8 10 1013.8 - 0.4 - - - - - - -
22/10:30am 11.2 N 7 9 1014.5 - 0.4 - - - - - - -
22/10:00am 10.6 N 8 11 1014.6 - 0.4 - - - - - - -
22/09:30am 10.3 N 7 10 1015.0 - 0.2 - - - - - - -
22/09:00am 10.6 N 7 11 1015.1 - 0.2 - - - - - - -
22/08:30am 10.4 N 8 11 1015.0 - 0.2 - - - - - - -
22/08:00am 10.2 N 9 11 1015.2 - 0.2 - - - - - - -
22/07:30am 9.4 N 7 9 1015.5 - 0.2 - - - - - - -
22/07:00am 5.9 N 4 5 1015.6 - 0.2 - - - - - - -
22/06:30am 7.6 NNE 5 7 1015.5 - 0.2 - - - - - - -
22/06:00am 5.7 N 5 6 1015.7 - 0.2 - - - - - - -
22/05:30am 4.1 NNW 3 4 1016.0 - 0.2 - - - - - - -
22/05:00am 5.9 NNW 4 5 1016.2 - 0.2 - - - - - - -
22/04:30am 6.8 NNW 5 6 1016.4 - 0.2 - - - - - - -
22/04:00am 7.7 NNW 7 8 1016.5 - 0.2 - - - - - - -
22/03:30am 9.0 N 8 11 1016.7 - 0.2 - - - - - - -
22/03:00am 9.3 N 7 10 1017.0 - 0.2 - - - - - - -
22/02:30am 9.3 N 8 11 1017.3 - 0.2 - - - - - - -
22/02:00am 9.3 N 8 11 1017.6 - 0.2 - - - - - - -
22/01:30am 9.5 N 8 11 1018.0 - 0.2 - - - - - - -
22/01:00am 9.5 N 8 11 1018.4 - 0.2 - - - - - - -
22/12:30am 9.2 N 8 10 1018.9 - 0.2 - - - - - - -
22/12:00am 8.8 N 8 11 1019.4 - 0.2 - - - - - - -
 
Date/Time
EST
Temp
°C
Wind Pressure Rain since
9am
mm
Weather Cloud Vis
km
Sea
Height
m
Swell
Dir  Spd
kts
Gust
kts
hPa Trend Height
m
Period
s
Dir
21/11:30pm 6.3 N 6 7 1019.9 - 0.2 - - - - - - -
21/11:00pm 5.3 ENE 5 7 1020.0 - 0.2 - - - - - - -
21/10:30pm 3.9 ENE 2 4 1020.3 - 0.2 - - - - - - -
21/10:00pm 3.7 ENE 1 4 1020.4 - 0.2 - - - - - - -
21/09:30pm 3.6 CALM 0 0 1020.5 - 0.2 - - - - - - -
21/09:00pm 3.5 CALM 0 0 1020.6 - 0.2 - - - - - - -
21/08:30pm 3.2 ENE 1 4 1020.6 - 0.2 - - - - - - -
21/08:00pm 5.8 ENE 4 5 1020.5 - 0.2 - - - - - - -
21/07:30pm 7.0 ENE 3 5 1020.6 - 0.0 - - - - - - -
21/07:00pm 7.3 ENE 4 4 1020.7 - 0.0 - - - - - - -
21/06:30pm 7.0 ENE 5 5 1020.5 - 0.0 - - - - - - -
21/06:00pm 7.2 ENE 6 7 1020.5 - 0.0 - - - - - - -
21/05:30pm 8.0 N 5 7 1020.4 - 0.0 - - - - - - -
21/05:00pm 8.8 N 4 5 1020.8 - 0.0 - - - - - - -
21/04:30pm 9.7 N 6 7 1021.0 - 0.0 - - - - - - -
21/04:00pm 10.1 N 5 6 1021.1 - 0.0 - - - - - - -
21/03:30pm 10.4 N 5 7 1021.3 - 0.0 - - - - - - -
21/03:00pm 11.6 NNE 5 - 1021.2 - 0.0 - - - - - - -
21/06:30am -1.6 S 5 6 1022.8 - 2.4 - - - - - - -
21/06:00am -1.4 SSW 5 6 1022.4 - 2.4 - - - - - - -
21/05:30am -1.3 S 5 6 1022.2 - 2.4 - - - - - - -
21/05:00am -1.2 S 3 6 1022.1 - 2.4 - - - - - - -
21/04:30am -1.1 SSW 5 5 1021.9 - 2.4 - - - - - - -
21/04:00am -0.5 SSW 4 5 1021.8 - 2.4 - - - - - - -
21/03:30am 0.0 SSW 6 8 1021.8 - 2.4 - - - - - - -
21/03:00am -0.2 SSW 5 6 1021.8 - 2.4 - - - - - - -
21/02:30am 0.5 SSW 5 6 1021.8 - 2.4 - - - - - - -
21/02:00am 1.6 SSW 4 7 1021.6 - 2.4 - - - - - - -
21/01:30am 1.1 SSW 4 5 1021.6 - 2.4 - - - - - - -
21/01:00am 0.5 WNW 4 5 1021.7 - 2.4 - - - - - - -
21/12:30am 1.4 WNW 4 5 1021.8 - 2.4 - - - - - - -
21/12:00am 1.2 SSW 4 6 1021.9 - 2.4 - - - - - - -
 
Date/Time
EST
Temp
°C
Wind Pressure Rain since
9am
mm
Weather Cloud Vis
km
Sea
Height
m
Swell
Dir  Spd
kts
Gust
kts
hPa Trend Height
m
Period
s
Dir
20/11:30pm 2.3 S 3 5 1021.5 - 2.4 - - - - - - -
20/11:00pm 2.1 SSW 5 7 1021.4 - 2.4 - - - - - - -
20/10:30pm 3.0 CALM 0 0 1021.7 - 2.4 - - - - - - -
20/10:00pm 2.8 SSW 4 5 1021.6 - 2.4 - - - - - - -
20/09:30pm 2.9 S 6 8 1021.5 - 2.4 - - - - - - -
20/09:00pm 4.0 SSW 5 6 1021.3 - 2.4 - - - - - - -
20/08:30pm 3.6 SSW 5 7 1021.1 - 2.4 - - - - - - -
20/08:00pm 4.6 SSW 6 7 1021.0 - 2.4 - - - - - - -
20/07:30pm 4.5 SSW 8 10 1020.7 - 2.4 - - - - - - -
20/07:00pm 4.6 SW 8 8 1020.6 - 2.4 - - - - - - -
20/06:30pm 4.6 SW 5 7 1020.2 - 2.4 - - - - - - -
20/06:00pm 5.3 W 7 8 1019.7 - 2.4 - - - - - - -
20/05:30pm 7.3 WSW 7 9 1018.9 - 2.4 - - - - - - -
20/05:00pm 8.5 SW 7 13 1018.2 - 2.4 - - - - - - -
20/04:30pm 9.4 SSW 14 20 1017.1 - 2.4 - - - - - - -
20/04:00pm 10.0 SSW 15 21 1016.8 - 2.4 - - - - - - -
20/03:30pm 10.2 SSW 17 21 1016.5 - 2.4 - - - - - - -
20/03:00pm 10.3 SSW 16 21 1016.3 - 2.4 - - - - - - -
20/02:30pm 10.2 SSW 17 24 1016.0 - 2.4 - - - - - - -
20/02:00pm 10.0 SSW 17 26 1015.6 - 2.4 - - - - - - -
20/01:30pm 9.6 SSW 20 27 1015.3 - 2.4 - - - - - - -
20/01:00pm 9.2 SSW 19 25 1015.0 - 2.4 - - - - - - -
20/12:30pm 8.5 SSW 20 26 1014.9 - 2.4 - - - - - - -
20/12:00pm 8.3 SSW 18 23 1015.2 - 2.4 - - - - - - -
20/11:30am 7.4 SW 18 23 1015.0 - 2.4 - - - - - - -
20/11:00am 6.3 SW 16 21 1015.6 - 2.4 - - - - - - -

Other Formats:

Comma delimited format used in spreadsheet applications
http://www.bom.gov.au/fwo/IDV60701/IDV60701.94953.axf

JavaScript Object Notation format (JSON) in row-major order
http://www.bom.gov.au/fwo/IDV60701/IDV60701.94953.json